Burnett, Wisconsin
Current Conditions -  °F | °C
As of 5:55 PM on Monday 20 Oct 2014 (Local Time) from KUNU Reporting Station
Overcast Overcast  
Wind Chill: 51°   Ceiling: 4400
Heat Index: 51°   Visibility: 10mi
Dew Point: 41°   Wind: 8mph
Humidity: 68%   Direction: 330°NNW
Pressure: 29.97"   Gusts: NA
Location:  43.5°N, 88.71°W
Report Text: KUNU 202255Z AUTO 33007KT 10SM OVC044 11/05 A2997 RMK AO2 T01050048
Loading
Personal Weather Stations






























Interactive Weather Map
Tropical Storm Tracking
New forecast layout! Learn more

10-Day Weather Forecast

Advertisements
Track Severe Weather on mobile